Terminal Aerodrome Forecast
Issued by NWS St Louis, MO

Home | Current Version | Previous Version | Text Only | Print | Product List | Glossary On
Versions: 1 2 3 4 5 6 7 8 9 10 11 12 13 14 15 16 17 18 19 20 21 22 23 24 25
132
FTUS43 KLSX 032119 AAA
TAFSTL
TAF AMD
KSTL 032119Z 0321/0424 12007KT P6SM BKN120
     FM041100 12005KT 5SM -RASN OVC025
     FM041400 12006KT 3SM -RA BR OVC010
     FM041800 17005KT P6SM OVC010
     FM042100 24005KT P6SM OVC015=

USA.gov is the U.S. government's official web portal to all federal, state and local government web resources and services.